Time;durP1;ratioP1;P1;durP2;ratioP2;P2;SDS_P1;SDS_P2;PMS_P1;PMS_P2;Temp;Humidity;BMP_temperature;BMP_pressure;BME280_temperature;BME280_humidity;BME280_pressure;Samples;Min_cycle;Max_cycle;Signal;HPM_P1;HPM_P2
2023/07/15 00:02:08;;;;;;;;;;;;;;;18.90;100.00;100429.72;5035798;28;20001;-74
2023/07/15 00:04:34;;;;;;;;;;;;;;;18.90;100.00;100433.28;5035513;28;19913;-75
2023/07/15 00:06:59;;;;;;;;;;;;;;;18.91;100.00;100424.13;5035712;28;19936;-74
2023/07/15 00:09:27;;;;;;;;;;;;;;;18.91;100.00;100440.31;5036251;28;20345;-75
2023/07/15 00:11:52;;;;;;;;;;;;;;;18.88;100.00;100442.59;5036152;28;19917;-75
2023/07/15 00:14:22;;;;;;;;;;;;;;;18.82;100.00;100455.84;5035855;28;20404;-74
2023/07/15 00:16:51;;;;;;;;;;;;;;;18.75;100.00;100454.13;5035796;28;19913;-74
2023/07/15 00:19:20;;;;;;;;;;;;;;;18.66;100.00;100467.78;5036066;28;19920;-74
2023/07/15 00:21:45;;;;;;;;;;;;;;;18.61;100.00;100470.25;5035371;28;20253;-75
2023/07/15 00:24:11;;;;;;;;;;;;;;;18.60;100.00;100454.28;5035464;28;19940;-74
2023/07/15 00:26:37;;;;;;;;;;;;;;;18.59;100.00;100441.84;5035366;28;20416;-75
2023/07/15 00:29:03;;;;;;;;;;;;;;;18.61;100.00;100429.81;5035314;28;20262;-74
2023/07/15 00:31:30;;;;;;;;;;;;;;;18.63;100.00;100427.78;5035875;28;20002;-74
2023/07/15 00:33:55;;;;;;;;;;;;;;;18.66;100.00;100438.16;5035783;28;19920;-74
2023/07/15 00:36:20;;;;;;;;;;;;;;;18.67;100.00;100439.81;5035522;28;19917;-74
2023/07/15 00:38:45;;;;;;;;;;;;;;;18.68;100.00;100457.63;5035669;28;19920;-75
2023/07/15 00:41:21;;;;;;;;;;;;;;;18.79;100.00;100471.56;5035042;28;19967;-75
2023/07/15 00:43:58;;;;;;;;;;;;;;;18.91;100.00;100480.75;5035628;28;19913;-75
2023/07/15 00:46:33;;;;;;;;;;;;;;;18.98;100.00;100481.59;5035703;28;20003;-74
2023/07/15 00:49:16;;;;;;;;;;;;;;;19.01;100.00;100475.78;5035289;28;19913;-74
2023/07/15 00:51:43;;;;;;;;;;;;;;;19.02;100.00;100480.16;5034698;28;19932;-75
2023/07/15 00:54:09;;;;;;;;;;;;;;;19.03;100.00;100486.38;5035165;28;19967;-74
2023/07/15 00:56:35;;;;;;;;;;;;;;;19.05;100.00;100478.09;5034901;28;19912;-75
2023/07/15 00:59:01;;;;;;;;;;;;;;;19.04;100.00;100479.97;5034617;28;19919;-75
2023/07/15 01:01:26;;;;;;;;;;;;;;;19.00;100.00;100473.31;5034747;28;19912;-74
2023/07/15 01:03:54;;;;;;;;;;;;;;;18.98;100.00;100465.44;5035175;28;19916;-74
2023/07/15 01:06:20;;;;;;;;;;;;;;;18.95;100.00;100467.72;5035028;28;19917;-75
2023/07/15 01:08:45;;;;;;;;;;;;;;;18.93;100.00;100476.00;5035070;28;20349;-74
2023/07/15 01:11:10;;;;;;;;;;;;;;;18.94;100.00;100460.66;5034791;28;20325;-75
2023/07/15 01:13:36;;;;;;;;;;;;;;;18.93;100.00;100458.97;5034534;28;20431;-75
2023/07/15 01:16:01;;;;;;;;;;;;;;;18.90;100.00;100470.16;5034165;28;20357;-74
2023/07/15 01:18:27;;;;;;;;;;;;;;;18.82;100.00;100460.38;5034689;28;19917;-74
2023/07/15 01:20:52;;;;;;;;;;;;;;;18.72;100.00;100458.06;5034414;28;19924;-75
2023/07/15 01:23:18;;;;;;;;;;;;;;;18.62;100.00;100469.22;5034013;28;19921;-74
2023/07/15 01:25:43;;;;;;;;;;;;;;;18.56;100.00;100461.13;5033945;28;19913;-74
2023/07/15 01:28:08;;;;;;;;;;;;;;;18.52;100.00;100449.09;5034433;28;20365;-74
2023/07/15 01:30:33;;;;;;;;;;;;;;;18.48;100.00;100454.03;5034686;28;20253;-74
2023/07/15 01:32:59;;;;;;;;;;;;;;;18.44;100.00;100453.59;5034175;28;20435;-74
2023/07/15 01:35:24;;;;;;;;;;;;;;;18.42;100.00;100457.53;5034127;28;19917;-74
2023/07/15 01:37:49;;;;;;;;;;;;;;;18.42;100.00;100454.81;5034117;28;19917;-74
2023/07/15 01:40:14;;;;;;;;;;;;;;;18.47;100.00;100458.59;5016259;28;20384;-74
2023/07/15 01:42:42;;;;;;;;;;;;;;;18.55;100.00;100464.84;5034014;28;20362;-75
2023/07/15 01:45:09;;;;;;;;;;;;;;;18.60;100.00;100465.91;5033912;28;19921;-74
2023/07/15 01:47:35;;;;;;;;;;;;;;;18.65;100.00;100465.31;5033878;28;19924;-74
2023/07/15 01:50:00;;;;;;;;;;;;;;;18.67;100.00;100464.06;5033878;28;20011;-75
2023/07/15 01:52:25;;;;;;;;;;;;;;;18.67;100.00;100474.00;5033964;28;19921;-74
2023/07/15 01:54:50;;;;;;;;;;;;;;;18.73;100.00;100469.69;5034512;28;20332;-74
2023/07/15 01:57:16;;;;;;;;;;;;;;;18.80;100.00;100470.53;5034105;28;20381;-75
2023/07/15 01:59:41;;;;;;;;;;;;;;;18.84;100.00;100469.09;5034420;28;19913;-75
2023/07/15 02:02:07;;;;;;;;;;;;;;;18.83;100.00;100476.34;5033630;28;20012;-74
2023/07/15 02:04:32;;;;;;;;;;;;;;;18.85;100.00;100468.06;5033788;28;19921;-75
2023/07/15 02:06:57;;;;;;;;;;;;;;;18.87;100.00;100466.03;5033920;28;19917;-75
2023/07/15 02:09:24;;;;;;;;;;;;;;;18.85;100.00;100462.66;5034488;28;19927;-74
2023/07/15 02:11:49;;;;;;;;;;;;;;;18.84;100.00;100463.72;5036767;28;20328;-74
2023/07/15 02:14:14;;;;;;;;;;;;;;;18.83;100.00;100457.47;5040185;28;20323;-74
2023/07/15 02:16:39;;;;;;;;;;;;;;;18.83;100.00;100457.47;5040647;28;19917;-74
2023/07/15 02:19:06;;;;;;;;;;;;;;;18.90;100.00;100462.06;5040201;28;20005;-74
2023/07/15 02:21:31;;;;;;;;;;;;;;;18.91;100.00;100469.97;5040202;28;19912;-75
2023/07/15 02:23:56;;;;;;;;;;;;;;;18.96;100.00;100464.81;5040184;28;19917;-75
2023/07/15 02:26:21;;;;;;;;;;;;;;;18.97;100.00;100468.31;5040058;28;19924;-75
2023/07/15 02:28:47;;;;;;;;;;;;;;;19.02;100.00;100465.88;5040183;28;19917;-74
2023/07/15 02:31:12;;;;;;;;;;;;;;;19.01;100.00;100459.63;5040045;28;20348;-74
2023/07/15 02:33:38;;;;;;;;;;;;;;;19.04;100.00;100458.41;5040103;28;19917;-74
2023/07/15 02:36:04;;;;;;;;;;;;;;;19.03;100.00;100462.97;5039999;28;19929;-74
2023/07/15 02:38:31;;;;;;;;;;;;;;;19.00;100.00;100460.69;5040030;28;19912;-74
2023/07/15 02:40:56;;;;;;;;;;;;;;;18.96;100.00;100463.97;5040055;28;19923;-74
2023/07/15 02:43:21;;;;;;;;;;;;;;;18.93;100.00;100472.44;5040377;28;19913;-75
2023/07/15 02:45:49;;;;;;;;;;;;;;;18.89;100.00;100463.13;5039863;28;19917;-74
2023/07/15 02:48:14;;;;;;;;;;;;;;;18.87;100.00;100467.88;5022121;28;19963;-74
2023/07/15 02:50:40;;;;;;;;;;;;;;;18.82;100.00;100458.53;5040199;28;20281;-74
2023/07/15 02:53:05;;;;;;;;;;;;;;;18.78;100.00;100459.09;5039834;28;20335;-75
2023/07/15 02:55:30;;;;;;;;;;;;;;;18.73;100.00;100448.13;5039859;28;20004;-74
2023/07/15 02:57:56;;;;;;;;;;;;;;;18.68;100.00;100462.19;5040345;28;19952;-74
2023/07/15 03:00:22;;;;;;;;;;;;;;;18.65;100.00;100459.91;5039712;28;19964;-74
2023/07/15 03:02:47;;;;;;;;;;;;;;;18.66;100.00;100453.47;5039524;28;20409;-74
2023/07/15 03:05:13;;;;;;;;;;;;;;;18.65;100.00;100468.81;5040186;28;20020;-74
2023/07/15 03:07:43;;;;;;;;;;;;;;;18.65;100.00;100466.13;5039674;28;19986;-73
2023/07/15 03:10:09;;;;;;;;;;;;;;;18.66;100.00;100466.94;5039633;28;19974;-74
2023/07/15 03:12:34;;;;;;;;;;;;;;;18.65;100.00;100468.00;5039721;28;20007;-75
2023/07/15 03:14:59;;;;;;;;;;;;;;;18.66;100.00;100459.72;5039918;28;19997;-74
2023/07/15 03:17:24;;;;;;;;;;;;;;;18.68;100.00;100452.25;5039574;28;19920;-74
2023/07/15 03:19:50;;;;;;;;;;;;;;;18.70;100.00;100457.44;5040090;28;20332;-74
2023/07/15 03:22:15;;;;;;;;;;;;;;;18.71;100.00;100455.59;5039140;28;19959;-74
2023/07/15 03:24:40;;;;;;;;;;;;;;;18.73;100.00;100462.41;5035296;28;20003;-74
2023/07/15 03:27:06;;;;;;;;;;;;;;;18.75;100.00;100460.38;5036423;28;19936;-74
2023/07/15 03:29:32;;;;;;;;;;;;;;;18.79;100.00;100458.09;5036590;28;19967;-74
2023/07/15 03:31:57;;;;;;;;;;;;;;;18.79;100.00;100456.22;5036322;28;19932;-75
2023/07/15 03:34:22;;;;;;;;;;;;;;;18.80;100.00;100465.16;5036205;28;19921;-74
2023/07/15 03:36:47;;;;;;;;;;;;;;;18.80;100.00;100465.97;5036786;28;20268;-75
2023/07/15 03:39:13;;;;;;;;;;;;;;;18.82;100.00;100469.31;5036548;28;19921;-75
2023/07/15 03:41:38;;;;;;;;;;;;;;;18.83;100.00;100462.03;5036100;28;19987;-75
2023/07/15 03:44:03;;;;;;;;;;;;;;;18.82;100.00;100463.91;5036367;28;19963;-75
2023/07/15 03:46:29;;;;;;;;;;;;;;;18.82;100.00;100469.31;5036229;28;19924;-75
2023/07/15 03:48:54;;;;;;;;;;;;;;;18.84;100.00;100461.03;5018597;28;19921;-74
2023/07/15 03:51:20;;;;;;;;;;;;;;;18.85;100.00;100473.44;5036188;28;19919;-74
2023/07/15 03:53:45;;;;;;;;;;;;;;;18.87;100.00;100468.72;5035932;28;19924;-74
2023/07/15 03:56:10;;;;;;;;;;;;;;;18.85;100.00;100460.84;5035620;28;19913;-74
2023/07/15 03:58:35;;;;;;;;;;;;;;;18.88;100.00;100472.25;5035867;28;20011;-74
2023/07/15 04:01:01;;;;;;;;;;;;;;;18.88;100.00;100467.69;5035851;28;20361;-74
2023/07/15 04:03:26;;;;;;;;;;;;;;;18.88;100.00;100473.06;5035646;28;20277;-73
2023/07/15 04:05:51;;;;;;;;;;;;;;;18.87;100.00;100479.50;5035639;28;20019;-73
2023/07/15 04:08:16;;;;;;;;;;;;;;;18.87;100.00;100478.66;5035797;28;19928;-74
2023/07/15 04:10:44;;;;;;;;;;;;;;;18.84;100.00;100480.72;5035702;28;19935;-75
2023/07/15 04:13:09;;;;;;;;;;;;;;;18.81;100.00;100489.19;5035967;28;19913;-75
2023/07/15 04:15:34;;;;;;;;;;;;;;;18.78;100.00;100480.66;5035550;28;19924;-74
2023/07/15 04:18:00;;;;;;;;;;;;;;;18.77;100.00;100485.22;5035405;28;19913;-75
2023/07/15 04:20:25;;;;;;;;;;;;;;;18.73;100.00;100504.72;5035397;28;19921;-75
2023/07/15 04:22:50;;;;;;;;;;;;;;;18.70;100.00;100505.94;5035458;28;19918;-76
2023/07/15 04:25:15;;;;;;;;;;;;;;;18.67;100.00;100507.19;5035289;28;19928;-74
2023/07/15 04:27:41;;;;;;;;;;;;;;;18.63;100.00;100516.69;5035877;28;20289;-74
2023/07/15 04:30:08;;;;;;;;;;;;;;;18.59;100.00;100515.44;5036119;28;19913;-75
2023/07/15 04:32:33;;;;;;;;;;;;;;;18.54;100.00;100520.59;5035462;28;19967;-75
2023/07/15 04:35:00;;;;;;;;;;;;;;;18.50;100.00;100522.00;5034981;28;19999;-74
2023/07/15 04:37:25;;;;;;;;;;;;;;;18.45;100.00;100513.69;5035619;28;19924;-74
2023/07/15 04:39:51;;;;;;;;;;;;;;;18.46;100.00;100520.75;5035078;28;19917;-74
2023/07/15 04:42:17;;;;;;;;;;;;;;;18.44;100.00;100517.44;5034944;28;19924;-74
2023/07/15 04:44:42;;;;;;;;;;;;;;;18.44;100.00;100512.03;5034885;28;20468;-74
2023/07/15 04:47:08;;;;;;;;;;;;;;;18.42;100.00;100511.38;5034942;28;19925;-74
2023/07/15 04:49:34;;;;;;;;;;;;;;;18.44;100.00;100512.03;5034779;28;19923;-74
2023/07/15 04:52:00;;;;;;;;;;;;;;;18.41;100.00;100499.78;5034835;28;19920;-73
2023/07/15 04:54:25;;;;;;;;;;;;;;;18.41;100.00;100502.50;5034814;28;19921;-73
2023/07/15 04:56:51;;;;;;;;;;;;;;;18.40;100.00;100503.50;5035214;28;19959;-76
2023/07/15 04:59:16;;;;;;;;;;;;;;;18.44;100.00;100501.25;5035294;28;20015;-75
2023/07/15 05:01:41;;;;;;;;;;;;;;;18.42;100.00;100506.84;5034647;28;19953;-75
2023/07/15 05:04:06;;;;;;;;;;;;;;;18.44;100.00;100512.84;5034738;28;20261;-74
2023/07/15 05:06:31;;;;;;;;;;;;;;;18.43;100.00;100519.25;5034508;28;20269;-74
2023/07/15 05:08:57;;;;;;;;;;;;;;;18.42;100.00;100514.09;5034302;28;20357;-75
2023/07/15 05:11:24;;;;;;;;;;;;;;;18.41;100.00;100515.13;5034414;28;20396;-75
2023/07/15 05:13:50;;;;;;;;;;;;;;;18.39;100.00;100517.19;5034384;28;19920;-74
2023/07/15 05:16:15;;;;;;;;;;;;;;;18.34;100.00;100515.06;5034507;28;19912;-74
2023/07/15 05:18:40;;;;;;;;;;;;;;;18.37;100.00;100520.06;5034256;28;20380;-75
2023/07/15 05:21:06;;;;;;;;;;;;;;;18.41;100.00;100520.53;5034310;28;20299;-74
2023/07/15 05:23:31;;;;;;;;;;;;;;;18.41;100.00;100517.81;5033921;28;19960;-74
2023/07/15 05:26:00;;;;;;;;;;;;;;;18.42;100.00;100522.16;5034436;28;20429;-73
2023/07/15 05:28:30;;;;;;;;;;;;;;;18.44;100.00;100520.13;5034705;28;19924;-74
2023/07/15 05:30:56;;;;;;;;;;;;;;;18.45;100.00;100516.38;5034127;28;19917;-74
2023/07/15 05:33:21;;;;;;;;;;;;;;;18.46;100.00;100521.56;5034108;28;19917;-74
2023/07/15 05:35:47;;;;;;;;;;;;;;;18.43;100.00;100523.84;5033668;28;19924;-74
2023/07/15 05:38:12;;;;;;;;;;;;;;;18.41;100.00;100520.53;5033699;28;19917;-74
2023/07/15 05:40:39;;;;;;;;;;;;;;;18.42;100.00;100524.84;5034242;28;20426;-74
2023/07/15 05:43:04;;;;;;;;;;;;;;;18.39;100.00;100520.72;5016768;28;19917;-75
2023/07/15 05:45:30;;;;;;;;;;;;;;;18.45;100.00;100517.22;5033975;28;20004;-75
2023/07/15 05:47:55;;;;;;;;;;;;;;;18.46;100.00;100535.03;5033412;28;20066;-75
2023/07/15 05:50:20;;;;;;;;;;;;;;;18.47;100.00;100528.63;5033851;28;19928;-75
2023/07/15 05:52:46;;;;;;;;;;;;;;;18.48;100.00;100533.00;5034325;28;19979;-75
2023/07/15 05:55:11;;;;;;;;;;;;;;;18.49;100.00;100539.19;5033848;28;20436;-74
2023/07/15 05:57:36;;;;;;;;;;;;;;;18.53;100.00;100536.97;5033730;28;19924;-74
2023/07/15 06:00:01;;;;;;;;;;;;;;;18.54;100.00;100539.44;5033754;28;19924;-74
2023/07/15 06:02:27;;;;;;;;;;;;;;;18.60;100.00;100544.03;5033856;28;19923;-74
2023/07/15 06:04:53;;;;;;;;;;;;;;;18.66;100.00;100537.00;5033584;28;19963;-74
2023/07/15 06:07:18;;;;;;;;;;;;;;;18.70;100.00;100546.34;5033284;28;19924;-74
2023/07/15 06:09:43;;;;;;;;;;;;;;;18.68;100.00;100560.03;5033639;28;19921;-74
2023/07/15 06:12:08;;;;;;;;;;;;;;;18.72;100.00;100554.22;5033361;28;19958;-75
2023/07/15 06:14:33;;;;;;;;;;;;;;;18.78;100.00;100550.75;5033552;28;20011;-74
2023/07/15 06:16:59;;;;;;;;;;;;;;;18.83;100.00;100545.59;5033573;28;20009;-74
2023/07/15 06:19:24;;;;;;;;;;;;;;;18.86;100.00;100553.31;5033528;28;19951;-75
2023/07/15 06:21:50;;;;;;;;;;;;;;;18.87;100.00;100541.50;5033385;28;19948;-74
2023/07/15 06:24:15;;;;;;;;;;;;;;;18.92;100.00;100544.41;5033435;28;20270;-74
2023/07/15 06:26:40;;;;;;;;;;;;;;;19.00;100.00;100536.16;5033346;28;19983;-75
2023/07/15 06:29:05;;;;;;;;;;;;;;;19.07;100.00;100541.56;5033413;28;19917;-75
2023/07/15 06:31:30;;;;;;;;;;;;;;;19.18;100.00;100548.22;5033432;28;20379;-74
2023/07/15 06:33:56;;;;;;;;;;;;;;;19.27;100.00;100538.94;5033240;28;19917;-74
2023/07/15 06:36:21;;;;;;;;;;;;;;;19.43;100.00;100539.59;5033364;28;20429;-74
2023/07/15 06:38:46;;;;;;;;;;;;;;;19.57;100.00;100546.66;5033384;28;20391;-75
2023/07/15 06:41:12;;;;;;;;;;;;;;;19.71;100.00;100548.34;5033291;28;19917;-74
2023/07/15 06:43:37;;;;;;;;;;;;;;;19.81;100.00;100544.41;5033320;28;20019;-74
2023/07/15 06:46:02;;;;;;;;;;;;;;;19.82;100.00;100544.22;5033459;28;20319;-74
2023/07/15 06:48:28;;;;;;;;;;;;;;;19.83;100.00;100539.66;5033071;28;20015;-74
2023/07/15 06:50:54;;;;;;;;;;;;;;;19.89;100.00;100546.94;5032934;28;19928;-74
2023/07/15 06:53:19;;;;;;;;;;;;;;;19.92;100.00;100537.59;5033931;28;19913;-74
2023/07/15 06:55:44;;;;;;;;;;;;;;;19.90;100.00;100541.31;5033256;28;19971;-74
2023/07/15 06:58:10;;;;;;;;;;;;;;;19.98;100.00;100540.28;5034911;28;19913;-74
2023/07/15 07:00:35;;;;;;;;;;;;;;;20.13;100.00;100544.63;5036908;28;20384;-74
2023/07/15 07:03:00;;;;;;;;;;;;;;;20.23;100.00;100543.16;5037320;28;19974;-74
2023/07/15 07:05:26;;;;;;;;;;;;;;;20.32;100.00;100540.22;5036744;28;19913;-75
2023/07/15 07:07:52;;;;;;;;;;;;;;;20.43;100.00;100539.59;5036551;28;19917;-74
2023/07/15 07:10:17;;;;;;;;;;;;;;;20.57;100.00;100548.47;5036742;28;19976;-74
2023/07/15 07:12:42;;;;;;;;;;;;;;;20.65;100.00;100539.34;5037084;28;19921;-76
2023/07/15 07:15:08;;;;;;;;;;;;;;;20.64;100.00;100554.69;5036791;28;19917;-75
2023/07/15 07:17:33;;;;;;;;;;;;;;;20.59;100.00;100554.53;5036682;28;19928;-80
2023/07/15 07:19:58;;;;;;;;;;;;;;;20.64;100.00;100554.69;5036854;28;19917;-82
2023/07/15 07:22:23;;;;;;;;;;;;;;;20.73;100.00;100541.81;5036643;28;19921;-80
2023/07/15 07:24:49;;;;;;;;;;;;;;;20.81;100.00;100546.16;5036774;28;20374;-80
2023/07/15 07:27:14;;;;;;;;;;;;;;;20.89;100.00;100544.03;5037051;28;19939;-80
2023/07/15 07:29:40;;;;;;;;;;;;;;;21.07;100.00;100546.03;5036452;28;19913;-81
2023/07/15 07:32:05;;;;;;;;;;;;;;;21.22;100.00;100553.88;5036330;28;19917;-84
2023/07/15 07:34:32;;;;;;;;;;;;;;;21.35;100.00;100558.38;5035954;28;19917;-79
2023/07/15 07:36:57;;;;;;;;;;;;;;;21.52;100.00;100555.19;5036019;28;19913;-79
2023/07/15 07:39:22;;;;;;;;;;;;;;;21.90;100.00;100549.69;5002290;28;20366;-79
2023/07/15 07:41:47;;;;;;;;;;;;;;;22.18;100.00;100551.94;5036699;28;19960;-76
2023/07/15 07:44:13;;;;;;;;;;;;;;;22.31;100.00;100551.00;5019429;28;19917;-81
2023/07/15 07:46:38;;;;;;;;;;;;;;;22.40;100.00;100543.41;5020316;28;19920;-84
2023/07/15 07:49:03;;;;;;;;;;;;;;;22.41;100.00;100552.38;5037773;28;19970;-76
2023/07/15 07:51:28;;;;;;;;;;;;;;;22.47;100.00;100551.50;5037080;28;19924;-78
2023/07/15 07:53:54;;;;;;;;;;;;;;;22.54;100.00;100553.06;5038229;28;19919;-78
2023/07/15 07:56:19;;;;;;;;;;;;;;;22.72;100.00;100575.81;5019598;28;19962;-79
2023/07/15 07:58:44;;;;;;;;;;;;;;;22.64;100.00;100566.09;5036236;28;19913;-80
2023/07/15 08:01:11;;;;;;;;;;;;;;;22.70;100.00;100561.66;5036724;28;19913;-79
2023/07/15 08:03:36;;;;;;;;;;;;;;;22.71;100.00;100568.75;5036791;28;19917;-78
2023/07/15 08:06:03;;;;;;;;;;;;;;;22.74;100.00;100565.56;5002579;28;20324;-80
2023/07/15 08:08:28;;;;;;;;;;;;;;;22.75;100.00;100567.25;5037182;28;19943;-80
2023/07/15 08:10:54;;;;;;;;;;;;;;;22.67;100.00;100575.66;5035941;28;19917;-79
2023/07/15 08:13:19;;;;;;;;;;;;;;;22.65;100.00;100575.06;5019996;28;20350;-80
2023/07/15 08:15:44;;;;;;;;;;;;;;;22.69;100.00;100578.97;5037327;28;19936;-80
2023/07/15 08:18:09;;;;;;;;;;;;;;;22.84;100.00;100584.00;5037488;28;19919;-80
2023/07/15 08:20:37;;;;;;;;;;;;;;;22.59;94.49;100586.81;5019590;28;19917;-82
2023/07/15 08:23:02;;;;;;;;;;;;;;;22.53;100.00;100581.22;5037900;28;19917;-81
2023/07/15 08:25:27;;;;;;;;;;;;;;;22.59;100.00;100589.53;5038324;28;19919;-83
2023/07/15 08:27:53;;;;;;;;;;;;;;;22.80;100.00;100590.97;5020411;28;19971;-82
2023/07/15 08:30:19;;;;;;;;;;;;;;;22.93;100.00;100576.41;5037604;28;20361;-78
2023/07/15 08:32:44;;;;;;;;;;;;;;;23.07;100.00;100570.56;5037702;28;19913;-79
2023/07/15 08:35:10;;;;;;;;;;;;;;;23.21;100.00;100582.13;5018579;28;20007;-81
2023/07/15 08:37:35;;;;;;;;;;;;;;;23.37;100.00;100580.66;5018698;28;20353;-79
2023/07/15 08:40:00;;;;;;;;;;;;;;;23.76;96.30;100585.72;5035741;28;19968;-79
2023/07/15 08:42:27;;;;;;;;;;;;;;;23.90;94.66;100589.94;5036151;28;19999;-78
2023/07/15 08:44:52;;;;;;;;;;;;;;;23.74;79.90;100587.84;5035465;28;20480;-78
2023/07/15 08:47:19;;;;;;;;;;;;;;;23.75;78.67;100595.78;5017867;28;20011;-80
2023/07/15 08:49:44;;;;;;;;;;;;;;;23.69;85.58;100593.16;5035640;28;19916;-78
2023/07/15 08:52:10;;;;;;;;;;;;;;;23.50;84.25;100597.84;5018407;28;20064;-76
2023/07/15 08:54:36;;;;;;;;;;;;;;;23.47;86.85;100590.97;5035932;28;20032;-76
2023/07/15 08:57:01;;;;;;;;;;;;;;;23.54;88.44;100582.72;5017568;28;20396;-74
2023/07/15 08:59:27;;;;;;;;;;;;;;;23.64;86.44;100587.59;5034429;28;20331;-76
2023/07/15 09:01:52;;;;;;;;;;;;;;;23.93;82.64;100592.19;5034344;28;19961;-79
2023/07/15 09:04:17;;;;;;;;;;;;;;;24.03;77.44;100596.19;5033746;28;19924;-78
2023/07/15 09:06:43;;;;;;;;;;;;;;;24.28;75.44;100591.38;5033801;28;19917;-79
2023/07/15 09:09:08;;;;;;;;;;;;;;;24.54;80.87;100591.97;5034575;28;20273;-76
2023/07/15 09:11:37;;;;;;;;;;;;;;;24.72;74.42;100587.47;5034257;28;19928;-78
2023/07/15 09:14:11;;;;;;;;;;;;;;;24.98;77.22;100619.59;5033833;28;19935;-76
2023/07/15 09:16:38;;;;;;;;;;;;;;;24.91;71.66;100607.19;5034035;28;20428;-81
2023/07/15 09:19:04;;;;;;;;;;;;;;;24.83;77.99;100600.22;5034004;28;19917;-81
2023/07/15 09:21:29;;;;;;;;;;;;;;;24.61;75.04;100610.91;5033282;28;19920;-82
2023/07/15 09:23:59;;;;;;;;;;;;;;;24.71;74.41;100602.16;5015704;28;19924;-79
2023/07/15 09:26:24;;;;;;;;;;;;;;;24.69;77.82;100601.53;5034372;28;20027;-84
2023/07/15 09:28:50;;;;;;;;;;;;;;;24.91;72.22;100596.31;5033824;28;19960;-77
2023/07/15 09:31:25;;;;;;;;;;;;;;;25.25;72.12;100599.16;5033264;28;19920;-80
2023/07/15 09:33:50;;;;;;;;;;;;;;;25.78;64.29;100608.03;5034341;28;19913;-79
2023/07/15 09:36:28;;;;;;;;;;;;;;;26.49;62.06;100602.09;5033752;28;20337;-78
2023/07/15 09:38:54;;;;;;;;;;;;;;;26.94;59.30;100603.00;5034391;28;19917;-79
2023/07/15 09:41:19;;;;;;;;;;;;;;;27.01;59.22;100615.38;5035348;28;20249;-78
2023/07/15 09:43:46;;;;;;;;;;;;;;;26.33;59.09;100606.50;5035306;28;19917;-78
2023/07/15 09:46:12;;;;;;;;;;;;;;;25.78;64.61;100608.88;5034690;28;20045;-79
2023/07/15 09:48:37;;;;;;;;;;;;;;;25.31;68.95;100603.66;5034671;28;19960;-79
2023/07/15 09:51:03;;;;;;;;;;;;;;;25.11;70.04;100614.94;5034873;28;20391;-79
2023/07/15 09:53:28;;;;;;;;;;;;;;;24.57;73.27;100620.56;5034670;28;19921;-80
2023/07/15 09:55:53;;;;;;;;;;;;;;;24.18;78.58;100622.91;5034541;28;19927;-81
2023/07/15 09:58:22;;;;;;;;;;;;;;;24.46;80.90;100614.06;5035290;28;19992;-79
2023/07/15 10:00:52;;;;;;;;;;;;;;;24.39;81.50;100611.47;5035389;28;19966;-88
2023/07/15 10:03:20;;;;;;;;;;;;;;;24.42;81.83;100612.88;5034034;28;19913;-83
2023/07/15 10:05:46;;;;;;;;;;;;;;;24.36;81.59;100613.84;5034270;28;19913;-84
2023/07/15 10:08:12;;;;;;;;;;;;;;;24.28;84.57;100623.16;5035189;28;20000;-82
2023/07/15 10:10:38;;;;;;;;;;;;;;;25.32;88.48;100614.31;5034416;28;19952;-79
2023/07/15 10:13:03;;;;;;;;;;;;;;;26.09;74.23;100614.03;5034326;28;20426;-82
2023/07/15 10:15:29;;;;;;;;;;;;;;;26.28;69.81;100617.34;5035361;28;19917;-77
2023/07/15 10:17:54;;;;;;;;;;;;;;;26.22;66.04;100617.25;5034954;28;19917;-78
2023/07/15 10:20:20;;;;;;;;;;;;;;;25.97;66.28;100617.63;5033945;28;19971;-78
2023/07/15 10:22:45;;;;;;;;;;;;;;;26.11;68.37;100606.44;5034972;28;20316;-80
2023/07/15 10:25:12;;;;;;;;;;;;;;;26.28;66.74;100598.25;5033636;28;19917;-83
2023/07/15 10:27:38;;;;;;;;;;;;;;;26.07;66.54;100605.31;5035635;28;19916;-84
2023/07/15 10:30:15;;;;;;;;;;;;;;;25.92;70.84;100600.41;5035197;28;19927;-79
2023/07/15 10:33:00;;;;;;;;;;;;;;;25.77;68.44;100600.97;5035517;28;20366;-77
2023/07/15 10:35:26;;;;;;;;;;;;;;;26.82;65.77;100586.75;5038383;28;20280;-77
2023/07/15 10:37:51;;;;;;;;;;;;;;;27.83;60.27;100595.47;5020444;28;19913;-80
2023/07/15 10:40:35;;;;;;;;;;;;;;;28.64;57.08;100580.78;5039061;28;19913;-80
2023/07/15 10:43:06;;;;;;;;;;;;;;;29.00;52.39;100567.22;5020849;28;19972;-78
2023/07/15 10:45:41;;;;;;;;;;;;;;;29.18;52.12;100572.19;5038422;28;19923;-80
2023/07/15 10:48:06;;;;;;;;;;;;;;;29.32;50.13;100558.00;5038383;28;19919;-77
2023/07/15 10:50:31;;;;;;;;;;;;;;;29.27;51.48;100561.56;5037994;28;19967;-78
2023/07/15 10:53:17;;;;;;;;;;;;;;;28.59;52.67;100556.91;5037577;28;19916;-77
2023/07/15 10:55:42;;;;;;;;;;;;;;;27.72;54.49;100564.50;5038357;28;19932;-76
2023/07/15 10:58:07;;;;;;;;;;;;;;;26.76;58.93;100557.75;5038152;28;19917;-76
2023/07/15 11:00:33;;;;;;;;;;;;;;;27.63;60.02;100547.75;5038683;28;19917;-84
2023/07/15 11:02:58;;;;;;;;;;;;;;;28.68;53.07;100532.63;5037946;28;20373;-76
2023/07/15 11:05:24;;;;;;;;;;;;;;;29.11;52.09;100551.63;5037943;28;19952;-79
2023/07/15 11:07:49;;;;;;;;;;;;;;;29.55;48.82;100537.50;5037230;28;20014;-78
2023/07/15 11:10:15;;;;;;;;;;;;;;;29.03;47.60;100539.31;5036741;28;20033;-77
2023/07/15 11:12:40;;;;;;;;;;;;;;;29.14;48.69;100551.94;5037195;28;19920;-80
2023/07/15 11:15:05;;;;;;;;;;;;;;;29.90;46.80;100541.34;5036826;28;20357;-79
2023/07/15 11:17:31;;;;;;;;;;;;;;;30.28;46.01;100539.09;5037146;28;19970;-81
2023/07/15 11:19:56;;;;;;;;;;;;;;;30.31;45.20;100533.03;5037574;28;19913;-78
2023/07/15 11:22:21;;;;;;;;;;;;;;;30.91;44.68;100524.84;5037486;28;19953;-81
2023/07/15 11:24:48;;;;;;;;;;;;;;;31.10;43.29;100513.25;5038217;28;20015;-82
2023/07/15 11:27:13;;;;;;;;;;;;;;;31.51;42.45;100509.38;5020276;28;19980;-80
2023/07/15 11:29:39;;;;;;;;;;;;;;;31.91;42.62;100497.19;5037421;28;20334;-78
2023/07/15 11:32:06;;;;;;;;;;;;;;;31.41;41.46;100502.84;5037106;28;20305;-79
2023/07/15 11:34:31;;;;;;;;;;;;;;;31.64;42.27;100516.97;5036523;28;19963;-77
2023/07/15 11:37:02;;;;;;;;;;;;;;;31.42;41.89;100515.47;5018979;28;20332;-79
2023/07/15 11:39:28;;;;;;;;;;;;;;;31.78;41.01;100517.97;5037292;28;20269;-79
2023/07/15 11:41:53;;;;;;;;;;;;;;;30.88;41.65;100508.94;5037054;28;19928;-79
2023/07/15 11:44:22;;;;;;;;;;;;;;;30.29;44.43;100493.25;5018163;28;19967;-78
2023/07/15 11:46:47;;;;;;;;;;;;;;;30.82;45.63;100504.59;5037646;28;20016;-79
2023/07/15 11:49:19;;;;;;;;;;;;;;;31.53;42.24;100505.22;5036281;28;20010;-79
2023/07/15 11:51:44;;;;;;;;;;;;;;;31.79;41.43;100497.59;5036340;28;19913;-76
2023/07/15 11:54:10;;;;;;;;;;;;;;;31.41;41.95;100489.09;5036705;28;19917;-78
2023/07/15 11:56:36;;;;;;;;;;;;;;;31.29;43.49;100483.97;5036087;28;19917;-76
2023/07/15 11:59:01;;;;;;;;;;;;;;;31.47;43.80;100482.47;5019115;28;19936;-73
2023/07/15 12:01:26;;;;;;;;;;;;;;;31.29;43.97;100475.75;5036094;28;19953;-73
2023/07/15 12:03:52;;;;;;;;;;;;;;;31.14;43.51;100470.34;5035586;28;19917;-72
2023/07/15 12:06:19;;;;;;;;;;;;;;;30.87;44.64;100479.00;5035662;28;19936;-73
2023/07/15 12:09:04;;;;;;;;;;;;;;;30.75;44.41;100476.63;5018312;28;19999;-74
2023/07/15 12:11:30;;;;;;;;;;;;;;;30.38;44.41;100473.22;5034559;28;19920;-72
2023/07/15 12:13:55;;;;;;;;;;;;;;;30.58;44.74;100477.00;5035691;28;19917;-71
2023/07/15 12:16:21;;;;;;;;;;;;;;;31.03;44.72;100471.53;5017942;28;20418;-72
2023/07/15 12:18:46;;;;;;;;;;;;;;;30.30;44.92;100451.81;5035629;28;20023;-73
2023/07/15 12:21:12;;;;;;;;;;;;;;;29.67;46.91;100466.78;5035545;28;19917;-73
2023/07/15 12:23:37;;;;;;;;;;;;;;;28.81;50.29;100460.97;5036119;28;19921;-73
2023/07/15 12:26:02;;;;;;;;;;;;;;;28.15;51.39;100469.69;5035519;28;19921;-73